Time;durP1;ratioP1;P1;durP2;ratioP2;P2;SDS_P1;SDS_P2;PMS_P1;PMS_P2;Temp;Humidity;BMP_temperature;BMP_pressure;BME280_temperature;BME280_humidity;BME280_pressure;Samples;Min_cycle;Max_cycle;Signal;HPM_P1;HPM_P2
2023/04/01 00:01:29;;;;;;;8.77;5.07;;;;;;;8.80;nan;-24062.94;5031708;28;20647;-72
2023/04/01 00:03:55;;;;;;;8.13;5.07;;;;;;;8.37;nan;-24050.94;5031605;28;20179;-70
2023/04/01 00:06:21;;;;;;;8.73;4.87;;;;;;;8.49;nan;-24054.19;5031207;28;20175;-71
2023/04/01 00:08:47;;;;;;;9.43;5.20;;;;;;;8.16;nan;-24044.84;5030495;28;20190;-73
2023/04/01 00:11:14;;;;;;;9.67;5.10;;;;;;;8.52;nan;-24055.03;5031428;28;20642;-71
2023/04/01 00:13:40;;;;;;;9.20;5.03;;;;;;;8.51;nan;-24054.75;5031370;28;20190;-70
2023/04/01 00:16:07;;;;;;;7.87;4.60;;;;;;;8.28;nan;-24048.22;5031413;28;20182;-70
2023/04/01 00:18:32;;;;;;;10.53;5.97;;;;;;;8.12;nan;-24043.69;4921331;28;21008;-72
2023/04/01 00:20:58;;;;;;;7.27;4.57;;;;;;;8.30;nan;-24048.94;4510113;28;20272;-73
2023/04/01 00:23:23;;;;;;;9.40;4.97;;;;;;;8.26;nan;-24047.66;5031408;28;20182;-72
2023/04/01 00:25:49;;;;;;;7.60;5.03;;;;;;;8.39;nan;-24051.34;5031031;28;20652;-73
2023/04/01 00:28:19;;;;;;;10.90;5.13;;;;;;;8.16;nan;-24044.97;5031370;28;20690;-74
2023/04/01 00:30:45;;;;;;;7.27;4.90;;;;;;;8.42;nan;-24052.34;5031186;28;20698;-71
2023/04/01 00:33:11;;;;;;;7.00;4.90;;;;;;;8.41;nan;-24051.91;5030883;28;20212;-70
2023/04/01 00:35:36;;;;;;;9.87;5.10;;;;;;;8.20;nan;-24046.09;5030941;28;20217;-72
2023/04/01 00:38:02;;;;;;;12.50;5.30;;;;;;;8.06;nan;-24042.16;5031436;28;20270;-70
2023/04/01 00:40:37;;;;;;;8.93;5.57;;;;;;;8.31;nan;-24049.09;5033756;28;20587;-72
2023/04/01 00:43:03;;;;;;;7.57;5.63;;;;;;;8.09;nan;-24043.00;5035483;28;20210;-72
2023/04/01 00:45:31;;;;;;;8.20;5.53;;;;;;;8.33;nan;-24049.66;5035237;28;20183;-69
2023/04/01 00:48:00;;;;;;;11.93;5.67;;;;;;;8.02;nan;-24040.88;5034853;28;20179;-70
2023/04/01 00:50:26;;;;;;;8.37;4.97;;;;;;;8.33;nan;-24049.66;5035537;28;20175;-70
2023/04/01 00:52:52;;;;;;;7.67;5.10;;;;;;;8.24;nan;-24047.25;5035211;28;20175;-70
2023/04/01 00:55:21;;;;;;;10.37;5.43;;;;;;;8.48;nan;-24053.91;5035457;28;20504;-70
2023/04/01 00:57:49;;;;;;;9.47;5.37;;;;;;;8.35;nan;-24050.22;5033781;28;20698;-71
2023/04/01 01:00:15;;;;;;;8.53;5.40;;;;;;;8.63;nan;-24058.16;5034686;28;20265;-69
2023/04/01 01:02:42;;;;;;;8.60;5.23;;;;;;;8.42;nan;-24052.34;5034537;28;20654;-70
2023/04/01 01:05:11;;;;;;;7.70;5.27;;;;;;;8.62;nan;-24057.88;5034938;28;20171;-71
2023/04/01 01:07:42;;;;;;;10.23;5.93;;;;;;;8.55;nan;-24055.75;5034480;28;20646;-71
2023/04/01 01:10:10;;;;;;;10.20;6.00;;;;;;;8.37;nan;-24050.94;5031055;28;20187;-70
2023/04/01 01:13:22;;;;;;;13.07;6.73;;;;;;;8.50;nan;-24054.31;5034763;28;20180;-72
2023/04/01 01:15:57;;;;;;;13.57;6.10;;;;;;;8.53;nan;-24055.31;5052642;28;20271;-70
2023/04/01 01:18:26;;;;;;;11.57;6.13;;;;;;;8.47;nan;-24053.63;5052551;28;20189;-69
2023/04/01 01:21:03;;;;;;;10.37;5.40;;;;;;;8.74;nan;-24061.25;5029314;28;20643;-72
2023/04/01 01:24:03;;;;;;;8.57;5.50;;;;;;;8.48;nan;-24053.75;5014381;28;20180;-70
2023/04/01 01:26:51;;;;;;;8.60;5.37;;;;;;;8.24;nan;-24047.25;5014770;28;20248;-72
2023/04/01 01:29:26;;;;;;;13.10;6.07;;;;;;;8.54;nan;-24055.59;5013940;28;20191;-72
2023/04/01 01:32:00;;;;;;;8.47;4.87;;;;;;;8.57;nan;-24056.31;5014362;28;20179;-72
2023/04/01 01:34:42;;;;;;;9.87;4.67;;;;;;;8.64;nan;-24058.44;5014902;28;20172;-70
2023/04/01 01:37:15;;;;;;;13.10;5.13;;;;;;;8.54;nan;-24055.59;5014697;28;20278;-70
2023/04/01 01:39:44;;;;;;;11.13;5.77;;;;;;;8.49;nan;-24054.19;5014575;28;20192;-72
2023/04/01 01:42:15;;;;;;;8.13;5.47;;;;;;;8.50;nan;-24054.31;5014140;28;20184;-71
2023/04/01 01:44:43;;;;;;;7.90;4.80;;;;;;;8.38;nan;-24051.22;5014846;28;20175;-71
2023/04/01 01:47:09;;;;;;;8.40;5.43;;;;;;;8.24;nan;-24047.09;5014277;28;20213;-71
2023/04/01 01:49:36;;;;;;;8.50;4.87;;;;;;;8.27;nan;-24048.09;5014120;28;20191;-74
2023/04/01 01:52:03;;;;;;;9.83;5.50;;;;;;;8.50;nan;-24054.47;5014275;28;20183;-68
2023/04/01 01:54:28;;;;;;;9.13;4.77;;;;;;;8.15;nan;-24044.69;5015322;28;20179;-73
2023/04/01 01:57:06;;;;;;;7.27;5.00;;;;;;;8.26;nan;-24047.66;5014247;28;20612;-70
2023/04/01 01:59:35;;;;;;;8.23;5.30;;;;;;;7.83;nan;-24035.63;5014670;28;20378;-70
2023/04/01 02:02:07;;;;;;;9.40;5.17;;;;;;;8.14;nan;-24044.28;5014044;28;20246;-69
2023/04/01 02:04:44;;;;;;;8.77;4.93;;;;;;;7.70;nan;-24032.09;5014109;28;20199;-71
2023/04/01 02:07:33;;;;;;;8.33;4.93;;;;;;;8.13;nan;-24044.00;5013947;28;20703;-71
2023/04/01 02:09:58;;;;;;;13.23;5.27;;;;;;;8.11;nan;-24043.56;5014237;28;20195;-72
2023/04/01 02:12:24;;;;;;;9.57;5.30;;;;;;;7.88;nan;-24037.19;5013938;28;20587;-68
2023/04/01 02:14:59;;;;;;;10.90;5.30;;;;;;;8.03;nan;-24041.28;5033018;28;20559;-71
2023/04/01 02:17:28;;;;;;;8.87;6.00;;;;;;;7.85;nan;-24036.34;5033324;28;20159;-69
2023/04/01 02:19:59;;;;;;;10.40;6.37;;;;;;;8.22;nan;-24046.53;5033275;28;20650;-71
2023/04/01 02:22:28;;;;;;;9.37;5.40;;;;;;;8.12;nan;-24043.84;5033157;28;20167;-69
2023/04/01 02:25:00;;;;;;;16.13;7.50;;;;;;;8.15;nan;-24044.56;5033430;28;20180;-72
2023/04/01 02:27:26;;;;;;;11.47;6.60;;;;;;;8.04;nan;-24041.44;5033474;28;20172;-73
2023/04/01 02:29:52;;;;;;;14.30;7.33;;;;;;;7.97;nan;-24039.72;5032751;28;20179;-72
2023/04/01 02:32:20;;;;;;;12.77;7.87;;;;;;;8.17;nan;-24045.13;5032976;28;20179;-70
2023/04/01 02:34:47;;;;;;;9.90;6.13;;;;;;;7.86;nan;-24036.47;5032904;28;20246;-69
2023/04/01 02:37:14;;;;;;;10.87;6.47;;;;;;;7.67;nan;-24031.09;5032876;28;20179;-71
2023/04/01 02:39:40;;;;;;;11.77;7.50;;;;;;;7.68;nan;-24031.38;5032601;28;20195;-72
2023/04/01 02:42:06;;;;;;;10.83;6.80;;;;;;;7.69;nan;-24031.81;5032883;28;20266;-72
2023/04/01 02:44:31;;;;;;;16.57;6.90;;;;;;;7.51;nan;-24026.69;5031246;28;20321;-69
2023/04/01 02:46:56;;;;;;;12.40;7.43;;;;;;;7.71;nan;-24032.22;5032964;28;20214;-71
2023/04/01 02:49:22;;;;;;;13.80;6.70;;;;;;;7.96;nan;-24039.44;5032899;28;20187;-71
2023/04/01 02:51:47;;;;;;;16.73;7.37;;;;;;;7.93;nan;-24038.47;5032966;28;20179;-72
2023/04/01 02:54:13;;;;;;;13.83;7.20;;;;;;;7.80;nan;-24034.91;5032922;28;20674;-71
2023/04/01 02:56:38;;;;;;;12.90;7.30;;;;;;;7.19;nan;-24017.78;5033959;28;20694;-69
2023/04/01 02:59:03;;;;;;;13.87;7.73;;;;;;;7.32;nan;-24021.31;5033012;28;20309;-71
2023/04/01 03:01:29;;;;;;;16.20;7.17;;;;;;;7.45;nan;-24025.13;5031877;28;20176;-71
2023/04/01 03:03:54;;;;;;;12.10;7.17;;;;;;;7.27;nan;-24019.91;5033021;28;20217;-69
2023/04/01 03:06:20;;;;;;;10.60;6.67;;;;;;;7.56;nan;-24028.13;5032775;28;20677;-73
2023/04/01 03:08:46;;;;;;;11.47;7.10;;;;;;;7.42;nan;-24024.28;5032446;28;20176;-70
2023/04/01 03:11:11;;;;;;;12.10;7.43;;;;;;;7.39;nan;-24023.44;5032327;28;20225;-71
2023/04/01 03:13:37;;;;;;;12.20;6.97;;;;;;;7.48;nan;-24026.00;5031251;28;20183;-72
2023/04/01 03:16:02;;;;;;;16.27;8.03;;;;;;;7.26;nan;-24019.63;5031947;28;20183;-73
2023/04/01 03:18:28;;;;;;;10.37;6.90;;;;;;;7.50;nan;-24026.56;5032450;28;20449;-71
2023/04/01 03:20:53;;;;;;;13.33;7.60;;;;;;;7.53;nan;-24027.28;5032251;28;20172;-70
2023/04/01 03:23:20;;;;;;;13.97;6.70;;;;;;;7.53;nan;-24027.28;5032332;28;20171;-72
2023/04/01 03:25:47;;;;;;;11.40;7.20;;;;;;;7.69;nan;-24031.81;5032254;28;20171;-71
2023/04/01 03:28:13;;;;;;;10.10;6.30;;;;;;;7.54;nan;-24027.56;5032183;28;20183;-72
2023/04/01 03:30:39;;;;;;;13.17;7.43;;;;;;;7.22;nan;-24018.47;5032096;28;20516;-71
2023/04/01 03:33:04;;;;;;;12.80;6.63;;;;;;;6.99;nan;-24012.25;5032745;28;20183;-72
2023/04/01 03:35:30;;;;;;;16.53;7.77;;;;;;;7.01;nan;-24012.81;5032261;28;20179;-70
2023/04/01 03:37:55;;;;;;;11.87;6.53;;;;;;;7.24;nan;-24019.19;5032140;28;20224;-72
2023/04/01 03:40:21;;;;;;;13.73;7.63;;;;;;;7.10;nan;-24015.34;5031965;28;20199;-73
2023/04/01 03:42:47;;;;;;;12.07;7.23;;;;;;;7.34;nan;-24022.03;5031618;28;20637;-70
2023/04/01 03:45:12;;;;;;;15.50;7.53;;;;;;;7.18;nan;-24017.34;5031682;28;20179;-71
2023/04/01 03:47:38;;;;;;;12.43;7.30;;;;;;;7.17;nan;-24017.19;5031773;28;20233;-70
2023/04/01 03:50:05;;;;;;;13.40;7.90;;;;;;;6.94;nan;-24010.69;5031899;28;20650;-69
2023/04/01 03:52:31;;;;;;;10.70;6.70;;;;;;;6.92;nan;-24010.13;5031468;28;20194;-71
2023/04/01 03:54:56;;;;;;;21.23;8.57;;;;;;;7.05;nan;-24013.81;5030201;28;20187;-72
2023/04/01 03:57:22;;;;;;;13.07;8.17;;;;;;;7.04;nan;-24013.66;5031621;28;20218;-71
2023/04/01 03:59:47;;;;;;;12.97;7.90;;;;;;;6.76;nan;-24005.56;5032317;28;20215;-71
2023/04/01 04:02:12;;;;;;;14.07;6.90;;;;;;;6.98;nan;-24011.94;5031594;28;20270;-70
2023/04/01 04:04:38;;;;;;;10.00;6.23;;;;;;;7.16;nan;-24016.91;5031392;28;20602;-70
2023/04/01 04:07:03;;;;;;;10.90;7.03;;;;;;;7.52;nan;-24026.97;5031782;28;20218;-72
2023/04/01 04:09:31;;;;;;;10.47;6.97;;;;;;;6.24;nan;-23990.94;5031392;28;20214;-72
2023/04/01 04:11:56;;;;;;;10.37;6.13;;;;;;;7.41;nan;-24024.00;5031418;28;20183;-71
2023/04/01 04:14:22;;;;;;;11.77;6.43;;;;;;;7.51;nan;-24026.84;5030208;28;20180;-71
2023/04/01 04:16:48;;;;;;;9.63;5.97;;;;;;;8.02;nan;-24040.88;5031286;28;20203;-70
2023/04/01 04:19:13;;;;;;;12.57;6.73;;;;;;;7.78;nan;-24034.34;5031573;28;20231;-71
2023/04/01 04:21:40;;;;;;;11.97;6.77;;;;;;;8.18;nan;-24045.41;5031492;28;20262;-71
2023/04/01 04:24:06;;;;;;;12.07;6.87;;;;;;;8.50;nan;-24054.31;5031419;28;20174;-72
2023/04/01 04:26:31;;;;;;;12.07;6.70;;;;;;;8.17;nan;-24045.13;5031002;28;20171;-71
2023/04/01 04:28:57;;;;;;;10.33;6.33;;;;;;;8.55;nan;-24055.88;5030873;28;20817;-72
2023/04/01 04:31:24;;;;;;;11.33;7.17;;;;;;;8.21;nan;-24046.25;5031121;28;20179;-70
2023/04/01 04:33:51;;;;;;;10.90;6.70;;;;;;;8.10;nan;-24043.13;5031186;28;20179;-70
2023/04/01 04:36:16;;;;;;;9.13;6.33;;;;;;;8.22;nan;-24046.69;5031105;28;20171;-72
2023/04/01 04:38:42;;;;;;;9.60;6.33;;;;;;;8.02;nan;-24040.88;5030864;28;20677;-72
2023/04/01 04:41:12;;;;;;;11.80;6.83;;;;;;;8.44;nan;-24052.78;5030917;28;20202;-71
2023/04/01 04:43:39;;;;;;;12.07;7.37;;;;;;;8.95;nan;-24067.06;5030165;28;20179;-72
2023/04/01 04:46:08;;;;;;;11.57;6.63;;;;;;;8.86;nan;-24064.50;5031044;28;20194;-72
2023/04/01 04:48:34;;;;;;;11.03;6.80;;;;;;;9.08;nan;-24070.72;5031078;28;20180;-72
2023/04/01 04:51:00;;;;;;;8.83;5.80;;;;;;;9.11;nan;-24071.59;5030773;28;20187;-71
2023/04/01 04:53:25;;;;;;;10.90;5.87;;;;;;;8.88;nan;-24064.94;5030940;28;20597;-70
2023/04/01 04:55:51;;;;;;;10.63;6.50;;;;;;;8.26;nan;-24047.81;5031072;28;20570;-72
2023/04/01 04:58:17;;;;;;;9.43;6.00;;;;;;;8.33;nan;-24049.66;5030922;28;20495;-70
2023/04/01 05:00:43;;;;;;;9.60;6.00;;;;;;;8.41;nan;-24051.91;5030932;28;20195;-70
2023/04/01 05:03:10;;;;;;;12.63;5.80;;;;;;;8.22;nan;-24046.53;5031997;28;20670;-73
2023/04/01 05:05:35;;;;;;;9.23;5.50;;;;;;;8.20;nan;-24046.09;5027820;28;20199;-70
2023/04/01 05:08:01;;;;;;;13.73;6.50;;;;;;;8.07;nan;-24042.28;5029346;28;20202;-73
2023/04/01 05:10:27;;;;;;;19.67;5.77;;;;;;;8.12;nan;-24043.84;5030649;28;20180;-72
2023/04/01 05:12:52;;;;;;;12.90;6.30;;;;;;;8.75;nan;-24061.41;5031359;28;20195;-72
2023/04/01 05:15:17;;;;;;;10.63;5.80;;;;;;;8.67;nan;-24059.28;5030994;28;20175;-73
2023/04/01 05:17:43;;;;;;;11.03;5.80;;;;;;;8.46;nan;-24053.19;5029441;28;20278;-71
2023/04/01 05:20:09;;;;;;;21.90;6.53;;;;;;;8.77;nan;-24061.97;5030888;28;20597;-70
2023/04/01 05:22:35;;;;;;;9.07;5.80;;;;;;;8.70;nan;-24059.97;5030411;28;20179;-73
2023/04/01 05:25:00;;;;;;;12.17;6.60;;;;;;;8.78;nan;-24062.25;5032037;28;20190;-74
2023/04/01 05:27:25;;;;;;;10.40;6.07;;;;;;;8.82;nan;-24063.53;5033436;28;20194;-72
2023/04/01 05:29:51;;;;;;;12.67;6.67;;;;;;;9.21;nan;-24074.25;5034225;28;20234;-71
2023/04/01 05:32:16;;;;;;;10.63;6.30;;;;;;;9.38;nan;-24079.06;5034365;28;20175;-73
2023/04/01 05:34:42;;;;;;;9.70;5.83;;;;;;;9.36;nan;-24078.50;5034197;28;20175;-72
2023/04/01 05:37:07;;;;;;;11.57;6.53;;;;;;;9.11;nan;-24071.44;5033985;28;20203;-73
2023/04/01 05:39:37;;;;;;;11.00;6.23;;;;;;;9.47;nan;-24081.47;5034053;28;20229;-72
2023/04/01 05:42:05;;;;;;;13.53;6.17;;;;;;;9.41;nan;-24079.91;5034448;28;20651;-75
2023/04/01 05:44:31;;;;;;;12.77;6.07;;;;;;;9.50;nan;-24082.31;5032856;28;20198;-73
2023/04/01 05:46:56;;;;;;;11.43;6.47;;;;;;;9.03;nan;-24069.31;5033646;28;20172;-73
2023/04/01 05:49:22;;;;;;;12.83;6.17;;;;;;;9.02;nan;-24068.91;5034061;28;20206;-72
2023/04/01 05:51:47;;;;;;;12.63;6.57;;;;;;;9.01;nan;-24068.63;5032282;28;20168;-70
2023/04/01 05:54:13;;;;;;;15.17;6.93;;;;;;;9.12;nan;-24071.88;5033589;28;20233;-73
2023/04/01 05:56:38;;;;;;;12.00;6.70;;;;;;;9.30;nan;-24076.94;5033690;28;20592;-73
2023/04/01 05:59:03;;;;;;;14.27;6.87;;;;;;;9.25;nan;-24075.41;5033659;28;20249;-73
2023/04/01 06:01:29;;;;;;;13.87;7.10;;;;;;;9.43;nan;-24080.34;5033268;28;20198;-70
2023/04/01 06:03:54;;;;;;;14.07;8.20;;;;;;;9.38;nan;-24079.06;5032934;28;20204;-70
2023/04/01 06:06:25;;;;;;;16.47;9.10;;;;;;;9.42;nan;-24080.06;5033950;28;20183;-72
2023/04/01 06:08:51;;;;;;;16.70;8.23;;;;;;;9.93;nan;-24094.34;5033616;28;20171;-72
2023/04/01 06:11:28;;;;;;;11.03;7.43;;;;;;;9.62;nan;-24085.84;5034272;28;20175;-71
2023/04/01 06:14:05;;;;;;;17.80;6.90;;;;;;;10.54;nan;-24111.56;5034103;28;20186;-71
2023/04/01 06:16:45;;;;;;;13.07;7.30;;;;;;;10.70;nan;-24115.78;5033778;28;20183;-69
2023/04/01 06:19:17;;;;;;;15.30;7.93;;;;;;;10.83;nan;-24119.59;5032524;28;20233;-72
2023/04/01 06:22:04;;;;;;;12.63;7.40;;;;;;;10.60;nan;-24113.13;5033309;28;20179;-73
2023/04/01 06:24:41;;;;;;;13.60;7.93;;;;;;;10.75;nan;-24117.34;5033908;28;20221;-73
2023/04/01 06:27:37;;;;;;;22.00;7.20;;;;;;;11.09;nan;-24126.78;5033379;28;20183;-72
2023/04/01 06:30:32;;;;;;;20.73;6.60;;;;;;;11.33;nan;-24133.56;5033444;28;20203;-71
2023/04/01 06:33:30;;;;;;;9.18;5.20;;;;;;;11.45;nan;-24136.81;5033417;28;20178;-70
2023/04/01 06:36:30;;;;;;;7.22;4.75;;;;;;;11.41;nan;-24135.66;5031073;28;20214;-72
2023/04/01 06:39:23;;;;;;;8.88;5.00;;;;;;;11.23;nan;-24130.75;5033153;28;20242;-71
2023/04/01 06:41:51;;;;;;;8.65;4.38;;;;;;;11.46;nan;-24137.22;5031874;28;20167;-71
2023/04/01 06:44:23;;;;;;;10.40;6.03;;;;;;;11.58;nan;-24140.47;5032953;28;20271;-70
2023/04/01 06:46:59;;;;;;;8.23;4.85;;;;;;;11.35;nan;-24134.13;5033195;28;20159;-71
2023/04/01 06:49:27;;;;;;;9.55;4.22;;;;;;;11.64;nan;-24142.16;5033626;28;20199;-71
2023/04/01 06:51:52;;;;;;;8.23;4.38;;;;;;;11.69;nan;-24143.41;5033161;28;20312;-71
2023/04/01 06:54:28;;;;;;;7.63;4.85;;;;;;;12.04;nan;-24153.13;5032921;28;20615;-72
2023/04/01 06:57:00;;;;;;;9.02;4.65;;;;;;;12.08;nan;-24154.41;5033094;28;20326;-73
2023/04/01 06:59:29;;;;;;;8.70;3.83;;;;;;;12.56;nan;-24167.63;5031362;28;20633;-72
2023/04/01 07:02:00;;;;;;;6.90;4.05;;;;;;;12.17;nan;-24156.78;5032693;28;20329;-70
2023/04/01 07:04:29;;;;;;;6.05;4.38;;;;;;;12.68;nan;-24171.00;5032766;28;20171;-73
2023/04/01 07:07:31;;;;;;;8.82;4.05;;;;;;;12.89;nan;-24176.91;5030991;28;20225;-73
2023/04/01 07:10:00;;;;;;;5.72;3.83;;;;;;;12.95;nan;-24178.59;5031212;28;20178;-71
2023/04/01 07:12:41;;;;;;;7.82;4.07;;;;;;;12.80;nan;-24174.38;5031408;28;20606;-70
2023/04/01 07:15:15;;;;;;;5.65;3.38;;;;;;;12.87;nan;-24176.34;5032523;28;20163;-71
2023/04/01 07:17:43;;;;;;;4.65;3.25;;;;;;;12.68;nan;-24171.00;5031218;28;20716;-71
2023/04/01 07:20:30;;;;;;;5.38;4.00;;;;;;;13.15;nan;-24184.22;5031455;28;20213;-73
2023/04/01 07:23:01;;;;;;;8.18;3.90;;;;;;;13.11;nan;-24183.09;5031240;28;20191;-72
2023/04/01 07:25:33;;;;;;;6.53;4.03;;;;;;;13.27;nan;-24187.59;5031935;28;20202;-71
2023/04/01 07:28:11;;;;;;;8.65;4.13;;;;;;;13.29;nan;-24188.03;5031901;28;20646;-71
2023/04/01 07:31:07;;;;;;;6.35;3.90;;;;;;;13.84;nan;-24203.19;5032111;28;20346;-71
2023/04/01 07:34:14;;;;;;;6.72;4.35;;;;;;;13.89;nan;-24204.72;5030533;28;20657;-71
2023/04/01 07:37:01;;;;;;;6.57;4.40;;;;;;;13.48;nan;-24193.34;5029964;28;20256;-71
2023/04/01 07:39:54;;;;;;;5.82;3.72;;;;;;;12.87;nan;-24176.34;5032338;28;20677;-73
2023/04/01 07:42:46;;;;;;;7.07;3.97;;;;;;;13.87;nan;-24204.03;5030587;28;20171;-73
2023/04/01 07:45:38;;;;;;;10.02;4.28;;;;;;;13.66;nan;-24198.28;5025953;28;20199;-71
2023/04/01 07:48:09;;;;;;;7.28;4.22;;;;;;;13.55;nan;-24195.19;5031925;28;20183;-71
2023/04/01 07:50:51;;;;;;;5.45;4.00;;;;;;;13.51;nan;-24194.19;5031835;28;20199;-73
2023/04/01 07:53:30;;;;;;;5.47;3.70;;;;;;;13.64;nan;-24197.72;5032098;28;20623;-71
2023/04/01 07:56:06;;;;;;;7.50;4.25;;;;;;;13.56;nan;-24195.47;5031808;28;20682;-72
2023/04/01 07:58:51;;;;;;;7.45;3.92;;;;;;;13.79;nan;-24201.78;5030644;28;20249;-73
2023/04/01 08:01:54;;;;;;;6.07;3.53;;;;;;;13.57;nan;-24195.75;5031609;28;20171;-72
2023/04/01 08:04:29;;;;;;;5.90;4.05;;;;;;;13.58;nan;-24196.03;5032432;28;20320;-74
2023/04/01 08:07:10;;;;;;;6.28;3.78;;;;;;;13.49;nan;-24193.63;5030578;28;20217;-74
2023/04/01 08:09:58;;;;;;;5.53;3.70;;;;;;;13.49;nan;-24193.50;5031761;28;20224;-71
2023/04/01 08:12:41;;;;;;;8.60;4.43;;;;;;;13.49;nan;-24193.50;5031987;28;20171;-72
2023/04/01 08:15:32;;;;;;;6.75;4.15;;;;;;;12.91;nan;-24177.34;5031059;28;20159;-71
2023/04/01 08:18:19;;;;;;;5.88;3.95;;;;;;;12.93;nan;-24177.91;5031323;28;20170;-70
2023/04/01 08:20:53;;;;;;;6.32;4.18;;;;;;;13.03;nan;-24180.84;5031535;28;20191;-70
2023/04/01 08:23:22;;;;;;;6.22;3.92;;;;;;;12.77;nan;-24173.53;5031893;28;20237;-68
2023/04/01 08:25:56;;;;;;;6.57;4.45;;;;;;;12.88;nan;-24176.63;5031250;28;20193;-70
2023/04/01 08:28:32;;;;;;;6.22;4.40;;;;;;;12.90;nan;-24177.06;5030940;28;20164;-71
2023/04/01 08:31:06;;;;;;;8.80;5.00;;;;;;;12.90;nan;-24177.19;5031572;28;20248;-71
2023/04/01 08:33:32;;;;;;;6.53;4.22;;;;;;;12.73;nan;-24172.41;5032151;28;20163;-71
2023/04/01 08:36:19;;;;;;;5.70;4.00;;;;;;;12.92;nan;-24177.75;5031732;28;20233;-70
2023/04/01 08:38:53;;;;;;;8.20;4.55;;;;;;;12.77;nan;-24173.53;5031247;28;20185;-69
2023/04/01 08:41:58;;;;;;;6.72;4.53;;;;;;;12.90;nan;-24177.19;5028427;28;20266;-70
2023/04/01 08:44:51;;;;;;;10.10;4.53;;;;;;;13.06;nan;-24181.69;5021868;28;20203;-70
2023/04/01 08:47:55;;;;;;;6.70;4.25;;;;;;;13.20;nan;-24185.63;5029667;28;20675;-69
2023/04/01 08:50:36;;;;;;;6.30;4.18;;;;;;;13.16;nan;-24184.50;5030982;28;20175;-71
2023/04/01 08:53:19;;;;;;;5.00;3.85;;;;;;;13.32;nan;-24188.72;5031261;28;20175;-68
2023/04/01 08:56:05;;;;;;;7.53;4.32;;;;;;;13.55;nan;-24195.19;5030904;28;20286;-69
2023/04/01 08:58:53;;;;;;;7.55;3.90;;;;;;;13.58;nan;-24196.03;5030694;28;20270;-69
2023/04/01 09:01:49;;;;;;;7.53;4.25;;;;;;;13.58;nan;-24196.03;5034702;28;20217;-70
2023/04/01 09:04:17;;;;;;;6.75;4.35;;;;;;;13.54;nan;-24194.91;5034185;28;20179;-70
2023/04/01 09:07:00;;;;;;;5.90;4.13;;;;;;;13.85;nan;-24203.47;5034571;28;20179;-69
2023/04/01 09:10:07;;;;;;;6.22;3.80;;;;;;;13.29;nan;-24188.03;5034947;28;20522;-70
2023/04/01 09:12:47;;;;;;;6.03;4.18;;;;;;;13.80;nan;-24202.19;5033702;28;20206;-71
2023/04/01 09:15:18;;;;;;;6.43;4.00;;;;;;;13.76;nan;-24201.09;5034332;28;20171;-69
2023/04/01 09:17:55;;;;;;;5.53;4.00;;;;;;;13.42;nan;-24191.66;5034694;28;20183;-69
2023/04/01 09:20:39;;;;;;;8.13;4.43;;;;;;;13.75;nan;-24200.66;5034491;28;20677;-71
2023/04/01 09:23:30;;;;;;;6.93;4.43;;;;;;;13.56;nan;-24195.59;5034579;28;20189;-70
2023/04/01 09:26:28;;;;;;;6.38;4.30;;;;;;;13.85;nan;-24203.59;5034142;28;20639;-71
2023/04/01 09:29:12;;;;;;;6.40;4.38;;;;;;;14.09;nan;-24210.19;5033066;28;20168;-70
2023/04/01 09:31:59;;;;;;;6.03;4.03;;;;;;;14.14;nan;-24211.75;5034176;28;20183;-69
2023/04/01 09:35:02;;;;;;;8.20;4.60;;;;;;;14.12;nan;-24211.19;5034501;28;20631;-69
2023/04/01 09:37:30;;;;;;;20.33;4.60;;;;;;;14.35;nan;-24217.50;5034288;28;20642;-73
2023/04/01 09:40:31;;;;;;;7.72;4.78;;;;;;;14.45;nan;-24220.16;5034200;28;20191;-70
2023/04/01 09:43:18;;;;;;;7.18;4.70;;;;;;;14.75;nan;-24228.44;5033601;28;20175;-72
2023/04/01 09:45:48;;;;;;;6.57;4.28;;;;;;;14.84;nan;-24231.09;5034342;28;20639;-71
2023/04/01 09:48:46;;;;;;;7.45;4.28;;;;;;;15.16;nan;-24239.94;5034741;28;20171;-70
2023/04/01 09:51:37;;;;;;;7.80;4.28;;;;;;;15.57;nan;-24251.28;5033810;28;20179;-70
2023/04/01 09:54:22;;;;;;;6.95;4.60;;;;;;;15.36;nan;-24245.38;5033857;28;20171;-70
2023/04/01 09:57:10;;;;;;;7.20;4.53;;;;;;;15.52;nan;-24249.88;5033613;28;20580;-71
2023/04/01 10:00:13;;;;;;;6.47;4.55;;;;;;;15.79;nan;-24257.44;5015457;28;20651;-69
2023/04/01 10:03:16;;;;;;;8.57;4.97;;;;;;;15.64;nan;-24253.22;5033691;28;20205;-70
2023/04/01 10:05:54;;;;;;;8.20;4.40;;;;;;;15.67;nan;-24254.06;5034002;28;20191;-71
2023/04/01 10:08:37;;;;;;;7.15;4.70;;;;;;;15.60;nan;-24251.97;5034102;28;20171;-71
2023/04/01 10:11:30;;;;;;;10.82;4.82;;;;;;;15.56;nan;-24251.00;5032266;28;20601;-70
2023/04/01 10:14:11;;;;;;;11.65;4.72;;;;;;;15.95;nan;-24261.78;5032844;28;20231;-72
2023/04/01 10:16:58;;;;;;;6.80;4.68;;;;;;;16.05;nan;-24264.44;5033807;28;20167;-70
2023/04/01 10:19:29;;;;;;;6.72;4.50;;;;;;;16.29;nan;-24271.28;5032815;28;20203;-72
2023/04/01 10:22:25;;;;;;;8.75;4.78;;;;;;;16.15;nan;-24267.22;5033025;28;20709;-72
2023/04/01 10:24:56;;;;;;;6.70;4.60;;;;;;;16.47;nan;-24276.03;5032190;28;20368;-69
2023/04/01 10:27:56;;;;;;;7.03;4.57;;;;;;;16.79;nan;-24285.13;5034093;28;20317;-69
2023/04/01 10:30:36;;;;;;;6.95;4.60;;;;;;;16.89;nan;-24287.78;5033971;28;20262;-70
2023/04/01 10:33:19;;;;;;;6.80;4.60;;;;;;;17.00;nan;-24290.72;5034176;28;20179;-69
2023/04/01 10:36:03;;;;;;;7.20;4.50;;;;;;;16.79;nan;-24285.13;5034270;28;20269;-71
2023/04/01 10:38:56;;;;;;;8.70;4.65;;;;;;;16.77;nan;-24284.56;5034137;28;20179;-71
2023/04/01 10:41:59;;;;;;;7.47;4.78;;;;;;;16.81;nan;-24285.41;5034111;28;20168;-72
2023/04/01 10:45:01;;;;;;;5.25;4.03;;;;;;;16.39;nan;-24273.94;5033243;28;20170;-70
2023/04/01 10:47:32;;;;;;;8.05;4.55;;;;;;;16.73;nan;-24283.44;5032238;28;20191;-70
2023/04/01 10:50:23;;;;;;;11.25;4.57;;;;;;;16.98;nan;-24290.16;5033374;28;20167;-74
2023/04/01 10:53:06;;;;;;;5.78;4.18;;;;;;;16.78;nan;-24284.84;5033106;28;20180;-70
2023/04/01 10:55:53;;;;;;;8.07;4.47;;;;;;;16.80;nan;-24285.25;5033426;28;20227;-71
2023/04/01 10:58:41;;;;;;;7.55;4.60;;;;;;;16.97;nan;-24289.88;5033487;28;20156;-73
2023/04/01 11:01:47;;;;;;;6.63;4.47;;;;;;;17.11;nan;-24293.78;5033202;28;20198;-71
2023/04/01 11:04:31;;;;;;;6.18;4.60;;;;;;;16.94;nan;-24289.03;5033154;28;20654;-70
2023/04/01 11:07:00;;;;;;;9.43;5.00;;;;;;;16.94;nan;-24289.16;5033049;28;20537;-70
2023/04/01 11:09:40;;;;;;;8.38;4.90;;;;;;;16.82;nan;-24285.69;5032692;28;20639;-70
2023/04/01 11:12:23;;;;;;;7.68;5.00;;;;;;;17.27;nan;-24298.25;5033159;28;20179;-59
2023/04/01 11:15:07;;;;;;;8.20;4.95;;;;;;;17.17;nan;-24295.44;5032597;28;20262;-61
2023/04/01 11:17:41;;;;;;;8.95;4.72;;;;;;;16.80;nan;-24285.25;5032427;28;20168;-63
2023/04/01 11:20:37;;;;;;;8.07;4.53;;;;;;;17.65;nan;-24308.84;5032554;28;20626;-62
2023/04/01 11:23:27;;;;;;;11.80;6.00;;;;;;;17.62;nan;-24308.00;5032419;28;20175;-61
2023/04/01 11:26:07;;;;;;;9.13;5.15;;;;;;;17.96;nan;-24317.22;5032311;28;20705;-64
2023/04/01 11:28:47;;;;;;;9.68;5.25;;;;;;;17.60;nan;-24307.47;5032566;28;20281;-64
2023/04/01 11:31:37;;;;;;;7.45;4.72;;;;;;;17.78;nan;-24312.19;5032207;28;20661;-62
2023/04/01 11:34:39;;;;;;;7.38;4.72;;;;;;;18.20;nan;-24323.91;5032223;28;20175;-66
2023/04/01 11:37:26;;;;;;;9.90;4.55;;;;;;;18.93;nan;-24344.13;5032584;28;20182;-57
2023/04/01 11:40:00;;;;;;;9.95;4.97;;;;;;;18.66;nan;-24336.44;5032316;28;20203;-59
2023/04/01 11:42:41;;;;;;;6.45;4.25;;;;;;;19.12;nan;-24349.25;5031940;28;20618;-61
2023/04/01 11:45:58;;;;;;;6.72;4.47;;;;;;;19.67;nan;-24364.28;5032372;28;20174;-61
2023/04/01 11:48:51;;;;;;;5.65;3.83;;;;;;;19.75;nan;-24366.50;5029592;28;20172;-60
2023/04/01 11:51:28;;;;;;;8.43;3.70;;;;;;;20.21;nan;-24379.28;5029631;28;20179;-59
2023/04/01 11:53:56;;;;;;;5.10;3.72;;;;;;;20.47;nan;-24386.25;5032027;28;20248;-61
2023/04/01 11:56:33;;;;;;;6.05;4.20;;;;;;;20.08;nan;-24375.69;5031849;28;20324;-60
2023/04/01 11:59:08;;;;;;;6.32;3.70;;;;;;;20.21;nan;-24379.28;5031971;28;20175;-60
2023/04/01 12:01:47;;;;;;;5.35;3.65;;;;;;;20.10;nan;-24376.09;5031893;28;20261;-60
2023/04/01 12:04:43;;;;;;;6.97;4.07;;;;;;;19.22;nan;-24351.91;5031769;28;20163;-58
2023/04/01 12:07:17;;;;;;;7.22;3.83;;;;;;;18.56;nan;-24333.66;5032200;28;20241;-60
2023/04/01 12:10:18;;;;;;;8.30;3.70;;;;;;;18.19;nan;-24323.63;5031601;28;20553;-63
2023/04/01 12:13:00;;;;;;;7.80;4.30;;;;;;;18.66;nan;-24336.59;5031657;28;20701;-62
2023/04/01 12:15:51;;;;;;;6.47;4.00;;;;;;;18.79;nan;-24340.06;5031691;28;20174;-60
2023/04/01 12:18:26;;;;;;;8.93;4.43;;;;;;;18.70;nan;-24337.56;5032291;28;20179;-60
2023/04/01 12:21:22;;;;;;;8.45;4.03;;;;;;;18.96;nan;-24344.81;5031627;28;20218;-59
2023/04/01 12:24:06;;;;;;;6.72;3.80;;;;;;;19.30;nan;-24354.28;5031430;28;20184;-60